SAS330 EGNT-EHAM
Flight info
| Callsign | SAS330 |
|---|---|
| Flight time | 0h 47m |
| Altitude | 32000 |
| Route | EGNT NTS08 GIRLI LAMSO ETPOS SUGOL SOKSI AM614 AM609 EHAM RW 06 |
| Aircraft | A346/M-VGDW/C |
Departure
| Time | 2026-05-06 20:48 |
|---|---|
| Airport | Newcastle International Airport (EGNT) |
Arrival
| Time | 2026-05-06 21:36 |
|---|---|
| Airport | Amsterdam Airport Schiphol (EHAM) |
| Time | Latitude | Longitude | Altitude | Speed | Heading |
|---|---|---|---|---|---|
| 2026-05-06 20:34 | 55.03739 | -1.70586 | 276 ft | 0 kts | 228° |
| 2026-05-06 20:43 | 55.03740 | -1.70585 | 274 ft | 1 kts | 228° |
| 2026-05-06 20:44 | 55.03751 | -1.70563 | 275 ft | 4 kts | 228° |
| 2026-05-06 20:44 | 55.03778 | -1.70511 | 278 ft | 7 kts | 228° |
| 2026-05-06 20:44 | 55.03770 | -1.70520 | 278 ft | 2 kts | 203° |
| 2026-05-06 20:44 | 55.03756 | -1.70516 | 277 ft | 4 kts | 168° |
| 2026-05-06 20:45 | 55.03687 | -1.70490 | 272 ft | 14 kts | 167° |
| 2026-05-06 20:45 | 55.03612 | -1.70380 | 269 ft | 16 kts | 113° |
| 2026-05-06 20:45 | 55.03593 | -1.70182 | 271 ft | 17 kts | 98° |
| 2026-05-06 20:45 | 55.03581 | -1.69971 | 274 ft | 19 kts | 95° |
| 2026-05-06 20:46 | 55.03596 | -1.69734 | 273 ft | 21 kts | 68° |
| 2026-05-06 20:46 | 55.03659 | -1.69486 | 271 ft | 24 kts | 65° |
| 2026-05-06 20:46 | 55.03733 | -1.69207 | 265 ft | 27 kts | 65° |
| 2026-05-06 20:46 | 55.03816 | -1.68896 | 261 ft | 32 kts | 65° |
| 2026-05-06 20:47 | 55.03924 | -1.68506 | 262 ft | 36 kts | 59° |
| 2026-05-06 20:47 | 55.04112 | -1.68213 | 253 ft | 37 kts | 37° |
| 2026-05-06 20:47 | 55.04273 | -1.67876 | 248 ft | 37 kts | 64° |
| 2026-05-06 20:47 | 55.04331 | -1.67476 | 250 ft | 25 kts | 104° |
| 2026-05-06 20:48 | 55.04202 | -1.67458 | 250 ft | 32 kts | 238° |
| 2026-05-06 20:48 | 55.03980 | -1.68277 | 257 ft | 115 kts | 245° |
| 2026-05-06 20:48 | 55.03539 | -1.69934 | 307 ft | 178 kts | 244° |
| 2026-05-06 20:48 | 55.03004 | -1.71942 | 1106 ft | 186 kts | 244° |
| 2026-05-06 20:49 | 55.02444 | -1.74062 | 1956 ft | 200 kts | 242° |
| 2026-05-06 20:49 | 55.02013 | -1.75541 | 2601 ft | 203 kts | 237° |
| 2026-05-06 20:49 | 55.00706 | -1.77786 | 4018 ft | 201 kts | 205° |
| 2026-05-06 20:49 | 54.99803 | -1.78224 | 4746 ft | 202 kts | 186° |
| 2026-05-06 20:50 | 54.97968 | -1.77871 | 6114 ft | 202 kts | 167° |
| 2026-05-06 20:50 | 54.97051 | -1.77420 | 6721 ft | 204 kts | 163° |
| 2026-05-06 20:50 | 54.95705 | -1.76564 | 7628 ft | 206 kts | 159° |
| 2026-05-06 20:50 | 54.94357 | -1.75611 | 8378 ft | 217 kts | 161° |
| 2026-05-06 20:51 | 54.92832 | -1.74812 | 8827 ft | 241 kts | 173° |
| 2026-05-06 20:51 | 54.91086 | -1.74852 | 9349 ft | 260 kts | 189° |
| 2026-05-06 20:51 | 54.89256 | -1.75319 | 10167 ft | 271 kts | 191° |
| 2026-05-06 20:51 | 54.87353 | -1.75862 | 10932 ft | 283 kts | 191° |
| 2026-05-06 20:52 | 54.85376 | -1.76426 | 11711 ft | 293 kts | 191° |
| 2026-05-06 20:52 | 54.83359 | -1.76991 | 12479 ft | 301 kts | 191° |
| 2026-05-06 20:52 | 54.81264 | -1.77571 | 13300 ft | 309 kts | 191° |
| 2026-05-06 20:52 | 54.79112 | -1.78160 | 14095 ft | 317 kts | 191° |
| 2026-05-06 20:53 | 54.76915 | -1.78758 | 14845 ft | 322 kts | 191° |
| 2026-05-06 20:53 | 54.74684 | -1.79360 | 15612 ft | 326 kts | 190° |
| 2026-05-06 20:53 | 54.72413 | -1.79270 | 16329 ft | 333 kts | 168° |
| 2026-05-06 20:53 | 54.70328 | -1.77519 | 17130 ft | 338 kts | 143° |
| 2026-05-06 20:54 | 54.68788 | -1.74440 | 17965 ft | 340 kts | 125° |
| 2026-05-06 20:54 | 54.67516 | -1.70999 | 18744 ft | 339 kts | 124° |
| 2026-05-06 20:54 | 54.66260 | -1.67565 | 19479 ft | 336 kts | 124° |
| 2026-05-06 20:54 | 54.65007 | -1.64166 | 20215 ft | 333 kts | 124° |
| 2026-05-06 20:55 | 54.63763 | -1.60818 | 20996 ft | 329 kts | 124° |
| 2026-05-06 20:55 | 54.62531 | -1.57525 | 21781 ft | 325 kts | 124° |
| 2026-05-06 20:55 | 54.61295 | -1.54238 | 22352 ft | 328 kts | 124° |
| 2026-05-06 20:55 | 54.60042 | -1.50919 | 22871 ft | 331 kts | 124° |
| 2026-05-06 20:56 | 54.58778 | -1.47576 | 23406 ft | 334 kts | 124° |
| 2026-05-06 20:56 | 54.57500 | -1.44205 | 23893 ft | 337 kts | 124° |
| 2026-05-06 20:56 | 54.56208 | -1.40804 | 24323 ft | 340 kts | 124° |
| 2026-05-06 20:56 | 54.54904 | -1.37377 | 24749 ft | 343 kts | 124° |
| 2026-05-06 20:57 | 54.53588 | -1.33923 | 25198 ft | 346 kts | 124° |
| 2026-05-06 20:57 | 54.52262 | -1.30446 | 25629 ft | 349 kts | 123° |
| 2026-05-06 20:57 | 54.50921 | -1.26936 | 26071 ft | 352 kts | 123° |
| 2026-05-06 20:57 | 54.49571 | -1.23406 | 26494 ft | 355 kts | 123° |
| 2026-05-06 20:58 | 54.48208 | -1.19847 | 26922 ft | 357 kts | 123° |
| 2026-05-06 20:58 | 54.46833 | -1.16262 | 27370 ft | 359 kts | 123° |
| 2026-05-06 20:58 | 54.45449 | -1.12659 | 27779 ft | 362 kts | 123° |
| 2026-05-06 20:58 | 54.44053 | -1.09028 | 28204 ft | 365 kts | 123° |
| 2026-05-06 20:59 | 54.42664 | -1.05420 | 28612 ft | 368 kts | 123° |
| 2026-05-06 20:59 | 54.41244 | -1.01738 | 29010 ft | 371 kts | 123° |
| 2026-05-06 20:59 | 54.39812 | -0.98031 | 29414 ft | 374 kts | 123° |
| 2026-05-06 20:59 | 54.38365 | -0.94292 | 29813 ft | 377 kts | 122° |
| 2026-05-06 21:00 | 54.36907 | -0.90530 | 30194 ft | 380 kts | 122° |
| 2026-05-06 21:00 | 54.35436 | -0.86740 | 30534 ft | 383 kts | 122° |
| 2026-05-06 21:00 | 54.33953 | -0.82924 | 30880 ft | 385 kts | 122° |
| 2026-05-06 21:00 | 54.32454 | -0.79072 | 31070 ft | 393 kts | 122° |
| 2026-05-06 21:01 | 54.30906 | -0.75098 | 31071 ft | 406 kts | 122° |
| 2026-05-06 21:01 | 54.29312 | -0.71011 | 31072 ft | 419 kts | 122° |
| 2026-05-06 21:01 | 54.27666 | -0.66801 | 31071 ft | 432 kts | 122° |
| 2026-05-06 21:01 | 54.25968 | -0.62466 | 31075 ft | 445 kts | 123° |
| 2026-05-06 21:02 | 54.24218 | -0.58006 | 31062 ft | 457 kts | 123° |
| 2026-05-06 21:02 | 54.22421 | -0.53438 | 31068 ft | 469 kts | 123° |
| 2026-05-06 21:02 | 54.20574 | -0.48748 | 31068 ft | 481 kts | 123° |
| 2026-05-06 21:02 | 54.18679 | -0.43948 | 31067 ft | 492 kts | 123° |
| 2026-05-06 21:03 | 54.16747 | -0.39065 | 31071 ft | 499 kts | 123° |
| 2026-05-06 21:03 | 54.12836 | -0.29208 | 31064 ft | 502 kts | 123° |
| 2026-05-06 21:04 | 54.08914 | -0.19364 | 31065 ft | 502 kts | 123° |
| 2026-05-06 21:04 | 54.04980 | -0.09528 | 31065 ft | 502 kts | 123° |
| 2026-05-06 21:05 | 54.01047 | 0.00271 | 31075 ft | 501 kts | 123° |
| 2026-05-06 21:05 | 53.97115 | 0.10029 | 31064 ft | 499 kts | 123° |
| 2026-05-06 21:06 | 53.93188 | 0.19732 | 31067 ft | 498 kts | 123° |
| 2026-05-06 21:06 | 53.89256 | 0.29415 | 31065 ft | 498 kts | 123° |
| 2026-05-06 21:07 | 53.85318 | 0.39075 | 31062 ft | 498 kts | 124° |
| 2026-05-06 21:07 | 53.81370 | 0.48722 | 31062 ft | 498 kts | 124° |
| 2026-05-06 21:08 | 53.77442 | 0.58294 | 31066 ft | 497 kts | 124° |
| 2026-05-06 21:08 | 53.73486 | 0.67886 | 31053 ft | 497 kts | 125° |
| 2026-05-06 21:09 | 53.69526 | 0.77452 | 31058 ft | 496 kts | 125° |
| 2026-05-06 21:09 | 53.65556 | 0.86996 | 31059 ft | 496 kts | 125° |
| 2026-05-06 21:10 | 53.61582 | 0.96520 | 31055 ft | 497 kts | 125° |
| 2026-05-06 21:10 | 53.57604 | 1.06024 | 31066 ft | 496 kts | 126° |
| 2026-05-06 21:11 | 53.53621 | 1.15510 | 31055 ft | 496 kts | 126° |
| 2026-05-06 21:11 | 53.49622 | 1.24980 | 31053 ft | 496 kts | 126° |
| 2026-05-06 21:12 | 53.45618 | 1.34430 | 31054 ft | 496 kts | 126° |
| 2026-05-06 21:12 | 53.41608 | 1.43861 | 31048 ft | 496 kts | 126° |
| 2026-05-06 21:13 | 53.37588 | 1.53282 | 31047 ft | 496 kts | 126° |
| 2026-05-06 21:13 | 53.33564 | 1.62699 | 31049 ft | 497 kts | 127° |
| 2026-05-06 21:14 | 53.29524 | 1.72088 | 31045 ft | 497 kts | 127° |
| 2026-05-06 21:14 | 53.25479 | 1.81455 | 31045 ft | 497 kts | 127° |
| 2026-05-06 21:15 | 53.21427 | 1.90821 | 31035 ft | 497 kts | 127° |
| 2026-05-06 21:15 | 53.17399 | 2.00086 | 31041 ft | 497 kts | 128° |
| 2026-05-06 21:16 | 53.13336 | 2.09405 | 31034 ft | 497 kts | 128° |
| 2026-05-06 21:16 | 53.09263 | 2.18703 | 31034 ft | 496 kts | 128° |
| 2026-05-06 21:17 | 53.05182 | 2.27983 | 31028 ft | 496 kts | 128° |
| 2026-05-06 21:17 | 53.01097 | 2.37241 | 30792 ft | 495 kts | 128° |
| 2026-05-06 21:17 | 52.99068 | 2.41830 | 30536 ft | 493 kts | 128° |
| 2026-05-06 21:18 | 52.97042 | 2.46405 | 30268 ft | 490 kts | 128° |
| 2026-05-06 21:18 | 52.95024 | 2.50953 | 30012 ft | 487 kts | 128° |
| 2026-05-06 21:18 | 52.93030 | 2.55437 | 29703 ft | 478 kts | 128° |
| 2026-05-06 21:18 | 52.91074 | 2.59829 | 29409 ft | 469 kts | 129° |
| 2026-05-06 21:19 | 52.89151 | 2.64139 | 29116 ft | 460 kts | 129° |
| 2026-05-06 21:19 | 52.87264 | 2.68362 | 28831 ft | 452 kts | 129° |
| 2026-05-06 21:19 | 52.85405 | 2.72511 | 28539 ft | 444 kts | 129° |
| 2026-05-06 21:19 | 52.83577 | 2.76588 | 28254 ft | 437 kts | 129° |
| 2026-05-06 21:20 | 52.81778 | 2.80592 | 28005 ft | 431 kts | 129° |
| 2026-05-06 21:20 | 52.79985 | 2.84574 | 27532 ft | 431 kts | 129° |
| 2026-05-06 21:20 | 52.78192 | 2.88549 | 27003 ft | 431 kts | 129° |
| 2026-05-06 21:20 | 52.76401 | 2.92514 | 26482 ft | 430 kts | 129° |
| 2026-05-06 21:21 | 52.74618 | 2.96481 | 25970 ft | 429 kts | 128° |
| 2026-05-06 21:21 | 52.72937 | 3.00549 | 25470 ft | 429 kts | 124° |
| 2026-05-06 21:21 | 52.71397 | 3.04767 | 24945 ft | 429 kts | 122° |
| 2026-05-06 21:21 | 52.69909 | 3.09025 | 24462 ft | 428 kts | 122° |
| 2026-05-06 21:22 | 52.68423 | 3.13278 | 23969 ft | 427 kts | 122° |
| 2026-05-06 21:22 | 52.66936 | 3.17517 | 23500 ft | 426 kts | 122° |
| 2026-05-06 21:22 | 52.65452 | 3.21741 | 22921 ft | 425 kts | 122° |
| 2026-05-06 21:22 | 52.63971 | 3.25944 | 22364 ft | 423 kts | 122° |
| 2026-05-06 21:23 | 52.62368 | 3.30480 | 21780 ft | 422 kts | 122° |
| 2026-05-06 21:23 | 52.61035 | 3.34254 | 21299 ft | 421 kts | 122° |
| 2026-05-06 21:23 | 52.59639 | 3.38473 | 20774 ft | 420 kts | 116° |
| 2026-05-06 21:23 | 52.58554 | 3.42929 | 20246 ft | 419 kts | 109° |
| 2026-05-06 21:24 | 52.57805 | 3.47624 | 19738 ft | 418 kts | 102° |
| 2026-05-06 21:24 | 52.57293 | 3.52253 | 19252 ft | 416 kts | 100° |
| 2026-05-06 21:24 | 52.56812 | 3.56945 | 18767 ft | 414 kts | 100° |
| 2026-05-06 21:24 | 52.56333 | 3.61610 | 18283 ft | 412 kts | 100° |
| 2026-05-06 21:25 | 52.55848 | 3.66252 | 17725 ft | 411 kts | 100° |
| 2026-05-06 21:25 | 52.55357 | 3.70871 | 17187 ft | 409 kts | 100° |
| 2026-05-06 21:25 | 52.54864 | 3.75465 | 16683 ft | 406 kts | 100° |
| 2026-05-06 21:25 | 52.54371 | 3.80021 | 16250 ft | 402 kts | 100° |
| 2026-05-06 21:26 | 52.53880 | 3.84521 | 15902 ft | 396 kts | 100° |
| 2026-05-06 21:26 | 52.53398 | 3.88931 | 15639 ft | 388 kts | 100° |
| 2026-05-06 21:26 | 52.52843 | 3.93220 | 15369 ft | 380 kts | 108° |
| 2026-05-06 21:26 | 52.51730 | 3.97092 | 15114 ft | 370 kts | 125° |
| 2026-05-06 21:27 | 52.50094 | 4.00262 | 14854 ft | 360 kts | 139° |
| 2026-05-06 21:27 | 52.48214 | 4.02920 | 14614 ft | 353 kts | 141° |
| 2026-05-06 21:27 | 52.46339 | 4.05457 | 14369 ft | 346 kts | 142° |
| 2026-05-06 21:27 | 52.44500 | 4.07945 | 14112 ft | 339 kts | 141° |
| 2026-05-06 21:28 | 52.42708 | 4.10394 | 13858 ft | 331 kts | 141° |
| 2026-05-06 21:28 | 52.40947 | 4.12805 | 13409 ft | 330 kts | 141° |
| 2026-05-06 21:28 | 52.39189 | 4.15207 | 12753 ft | 327 kts | 141° |
| 2026-05-06 21:28 | 52.37467 | 4.17575 | 12214 ft | 318 kts | 140° |
| 2026-05-06 21:29 | 52.35724 | 4.19984 | 11655 ft | 310 kts | 141° |
| 2026-05-06 21:29 | 52.34166 | 4.22130 | 11185 ft | 303 kts | 141° |
| 2026-05-06 21:29 | 52.32569 | 4.24323 | 10673 ft | 297 kts | 140° |
| 2026-05-06 21:29 | 52.30996 | 4.26478 | 10174 ft | 291 kts | 140° |
| 2026-05-06 21:30 | 52.29457 | 4.28589 | 9664 ft | 286 kts | 140° |
| 2026-05-06 21:30 | 52.27945 | 4.30656 | 9104 ft | 281 kts | 140° |
| 2026-05-06 21:30 | 52.26455 | 4.32691 | 8592 ft | 277 kts | 139° |
| 2026-05-06 21:30 | 52.24992 | 4.34700 | 8051 ft | 273 kts | 137° |
| 2026-05-06 21:31 | 52.23775 | 4.37021 | 7519 ft | 267 kts | 117° |
| 2026-05-06 21:31 | 52.23068 | 4.39763 | 7012 ft | 257 kts | 104° |
| 2026-05-06 21:31 | 52.22574 | 4.42520 | 6412 ft | 251 kts | 103° |
| 2026-05-06 21:31 | 52.22257 | 4.44341 | 5974 ft | 247 kts | 102° |
| 2026-05-06 21:32 | 52.21639 | 4.47900 | 5094 ft | 242 kts | 102° |
| 2026-05-06 21:32 | 52.21180 | 4.53170 | 3683 ft | 233 kts | 70° |
| 2026-05-06 21:32 | 52.21836 | 4.55523 | 3004 ft | 230 kts | 57° |
| 2026-05-06 21:33 | 52.22737 | 4.57713 | 2388 ft | 226 kts | 55° |
| 2026-05-06 21:33 | 52.23576 | 4.59761 | 2013 ft | 213 kts | 56° |
| 2026-05-06 21:33 | 52.24343 | 4.61742 | 1719 ft | 199 kts | 57° |
| 2026-05-06 21:33 | 52.25041 | 4.63588 | 1483 ft | 183 kts | 57° |
| 2026-05-06 21:34 | 52.25684 | 4.65282 | 1224 ft | 169 kts | 57° |
| 2026-05-06 21:34 | 52.26280 | 4.66845 | 992 ft | 155 kts | 56° |
| 2026-05-06 21:34 | 52.26858 | 4.68357 | 794 ft | 159 kts | 56° |
| 2026-05-06 21:34 | 52.27423 | 4.69839 | 606 ft | 151 kts | 55° |
| 2026-05-06 21:35 | 52.28002 | 4.71348 | 398 ft | 160 kts | 56° |
| 2026-05-06 21:35 | 52.28591 | 4.72890 | 162 ft | 163 kts | 56° |
| 2026-05-06 21:35 | 52.29174 | 4.74414 | 22 ft | 150 kts | 55° |
| 2026-05-06 21:35 | 52.29665 | 4.75690 | 4 ft | 108 kts | 58° |
| 2026-05-06 21:36 | 52.29972 | 4.76481 | 2 ft | 59 kts | 58° |
| 2026-05-06 21:36 | 52.30182 | 4.77023 | 3 ft | 49 kts | 58° |
| 2026-05-06 21:36 | 52.30386 | 4.77369 | 3 ft | 31 kts | 26° |
| 2026-05-06 21:36 | 52.30517 | 4.77360 | 6 ft | 17 kts | 334° |
| 2026-05-06 21:37 | 52.30616 | 4.77252 | 7 ft | 18 kts | 317° |
| 2026-05-06 21:37 | 52.30645 | 4.77055 | 6 ft | 19 kts | 273° |
| 2026-05-06 21:37 | 52.30665 | 4.76876 | 6 ft | 4 kts | 294° |
| 2026-05-06 21:37 | 52.30680 | 4.76823 | 6 ft | 7 kts | 294° |